createdAt,value
2017-05-09T00:00:23.093Z,22.2
2017-05-09T00:01:32.685Z,22.21
2017-05-09T00:02:41.987Z,22.22
2017-05-09T00:03:51.607Z,22.24
2017-05-09T00:05:01.816Z,22.25
2017-05-09T00:06:11.729Z,22.2
2017-05-09T00:07:21.626Z,22.2
2017-05-09T00:08:31.854Z,22.25
2017-05-09T00:09:41.768Z,22.2
2017-05-09T00:10:52.238Z,22.25
2017-05-09T00:12:02.147Z,22.27
2017-05-09T00:13:12.368Z,22.21
2017-05-09T00:14:22.290Z,22.18
2017-05-09T00:15:32.510Z,22.21
2017-05-09T00:16:42.575Z,22.24
2017-05-09T00:17:52.492Z,22.2
2017-05-09T00:19:02.706Z,22.22
2017-05-09T00:20:11.697Z,22.17
2017-05-09T00:21:21.304Z,22.22
2017-05-09T00:22:31.461Z,22.2
2017-05-09T00:23:41.677Z,22.24
2017-05-09T00:24:51.287Z,22.2
2017-05-09T00:26:01.500Z,22.18
2017-05-09T00:27:11.398Z,22.15
2017-05-09T00:28:21.154Z,22.18
2017-05-09T00:29:30.760Z,22.22
2017-05-09T00:30:40.994Z,22.21
2017-05-09T00:31:51.201Z,22.18
2017-05-09T00:33:01.112Z,22.21
2017-05-09T00:34:11.574Z,22.22
2017-05-09T00:35:21.486Z,22.22
2017-05-09T00:36:31.117Z,22.15
2017-05-09T00:37:41.364Z,22.2
2017-05-09T00:38:51.951Z,22.24
2017-05-09T00:40:02.470Z,22.18
2017-05-09T00:41:12.373Z,22.2
2017-05-09T00:42:22.293Z,22.18
2017-05-09T00:43:31.603Z,22.18
2017-05-09T00:44:40.589Z,22.14
2017-05-09T00:45:50.853Z,22.18
2017-05-09T00:47:00.155Z,22.24
2017-05-09T00:48:09.462Z,22.14
2017-05-09T00:49:19.072Z,22.22
2017-05-09T00:50:28.986Z,22.21
2017-05-09T00:51:38.885Z,22.17
2017-05-09T00:52:49.096Z,22.17
2017-05-09T00:53:59.001Z,22.1
2017-05-09T00:55:08.928Z,22.03
2017-05-09T00:56:18.834Z,22.05
2017-05-09T00:57:29.036Z,22.1
2017-05-09T00:58:38.947Z,22.17
2017-05-09T00:59:49.181Z,22
2017-05-09T01:00:59.394Z,22.07
2017-05-09T01:02:09.599Z,22.09
2017-05-09T01:03:20.051Z,22.07
2017-05-09T01:04:29.958Z,22.07
2017-05-09T01:05:39.566Z,22.06
2017-05-09T01:06:49.787Z,22.07
2017-05-09T01:07:59.695Z,22.05
2017-05-09T01:09:10.011Z,22.06
2017-05-09T01:10:19.942Z,22.02
2017-05-09T01:11:29.551Z,22.07
2017-05-09T01:12:39.172Z,22.07
2017-05-09T01:13:49.107Z,22.05
2017-05-09T01:14:59.636Z,21.99
2017-05-09T01:16:09.846Z,22.1
2017-05-09T01:17:19.453Z,22.09
2017-05-09T01:18:29.084Z,22.09
2017-05-09T01:19:39.006Z,22.06
2017-05-09T01:20:49.228Z,22.02
2017-05-09T01:21:59.128Z,22.09
2017-05-09T01:23:09.339Z,22.03
2017-05-09T01:24:19.276Z,22
2017-05-09T01:25:29.194Z,21.96
2017-05-09T01:26:38.943Z,22.03
2017-05-09T01:27:49.157Z,22.03
2017-05-09T01:28:59.070Z,22
2017-05-09T01:30:08.974Z,21.98
2017-05-09T01:31:19.196Z,21.96
2017-05-09T01:32:29.656Z,22.03
2017-05-09T01:33:39.256Z,22
2017-05-09T01:34:49.163Z,21.99
2017-05-09T01:35:58.767Z,21.96
2017-05-09T01:37:08.675Z,21.99
2017-05-09T01:38:18.824Z,21.98
2017-05-09T01:39:29.041Z,21.98
2017-05-09T01:40:39.249Z,21.99
2017-05-09T01:41:48.861Z,21.98
2017-05-09T01:42:59.080Z,21.99
2017-05-09T01:44:09.393Z,21.98
2017-05-09T01:45:19.292Z,21.98
2017-05-09T01:46:29.187Z,21.92
2017-05-09T01:47:39.392Z,21.99
2017-05-09T01:48:49.612Z,21.98
2017-05-09T01:49:59.682Z,22
2017-05-09T01:51:09.897Z,22
2017-05-09T01:52:19.491Z,21.98
2017-05-09T01:53:29.400Z,22
2017-05-09T01:54:39.310Z,21.98
2017-05-09T01:55:49.613Z,21.98
2017-05-09T01:56:59.531Z,21.94
2017-05-09T01:58:09.758Z,21.99
2017-05-09T01:59:19.361Z,21.98
2017-05-09T02:00:29.290Z,21.94
2017-05-09T02:01:39.653Z,22
2017-05-09T02:02:49.557Z,22.02
2017-05-09T02:03:59.803Z,21.96
2017-05-09T02:05:09.725Z,21.99
2017-05-09T02:06:19.330Z,22
2017-05-09T02:07:29.242Z,21.94
2017-05-09T02:08:39.462Z,21.96
2017-05-09T02:09:49.077Z,22.02
2017-05-09T02:10:58.985Z,21.96
2017-05-09T02:12:08.290Z,21.94
2017-05-09T02:13:18.458Z,21.99
2017-05-09T02:14:28.681Z,21.98
2017-05-09T02:15:37.973Z,21.96
2017-05-09T02:16:48.183Z,21.99
2017-05-09T02:17:57.794Z,21.96
2017-05-09T02:19:07.862Z,21.96
2017-05-09T02:20:18.075Z,22
2017-05-09T02:21:27.987Z,21.96
2017-05-09T02:22:38.203Z,21.98
2017-05-09T02:23:47.812Z,21.98
2017-05-09T02:24:58.036Z,21.99
2017-05-09T02:26:07.936Z,21.98
2017-05-09T02:27:17.850Z,21.98
2017-05-09T02:28:28.065Z,22.02
2017-05-09T02:29:38.334Z,21.9
2017-05-09T02:30:48.803Z,21.99
2017-05-09T02:31:59.020Z,21.99
2017-05-09T02:33:09.254Z,21.98
2017-05-09T02:34:19.167Z,21.96
2017-05-09T02:35:28.773Z,22
2017-05-09T02:36:38.863Z,21.96
2017-05-09T02:37:48.781Z,22.02
2017-05-09T02:38:58.710Z,21.96
2017-05-09T02:40:08.620Z,21.94
2017-05-09T02:41:18.830Z,21.88
2017-05-09T02:42:28.888Z,21.96
2017-05-09T02:43:38.791Z,21.82
2017-05-09T02:44:48.419Z,22
2017-05-09T02:45:58.634Z,21.83
2017-05-09T02:47:08.853Z,21.98
2017-05-09T02:48:18.429Z,22
2017-05-09T02:49:28.661Z,21.98
2017-05-09T02:50:38.259Z,21.99
2017-05-09T02:51:48.486Z,21.96
2017-05-09T02:52:58.083Z,22
2017-05-09T02:54:07.862Z,21.99
2017-05-09T02:55:17.468Z,21.96
2017-05-09T02:56:27.700Z,21.84
2017-05-09T02:57:37.917Z,21.96
2017-05-09T02:58:47.512Z,21.98
2017-05-09T02:59:57.581Z,21.96
2017-05-09T03:01:07.193Z,21.94
2017-05-09T03:02:16.783Z,21.92
2017-05-09T03:03:26.706Z,21.86
2017-05-09T03:04:36.321Z,21.94
2017-05-09T03:05:46.580Z,21.91
2017-05-09T03:06:56.801Z,21.88
2017-05-09T03:08:06.702Z,21.98
2017-05-09T03:09:16.607Z,21.94
2017-05-09T03:10:26.517Z,21.91
2017-05-09T03:11:36.418Z,21.88
2017-05-09T03:12:46.017Z,21.91
2017-05-09T03:13:55.935Z,21.94
2017-05-09T03:15:05.843Z,21.9
2017-05-09T03:16:15.767Z,21.86
2017-05-09T03:17:26.120Z,21.86
2017-05-09T03:18:36.020Z,21.88
2017-05-09T03:19:45.625Z,21.91
2017-05-09T03:20:55.532Z,21.91
2017-05-09T03:22:05.130Z,21.9
2017-05-09T03:23:15.029Z,21.94
2017-05-09T03:24:24.936Z,21.9
2017-05-09T03:25:34.552Z,21.91
2017-05-09T03:26:44.479Z,21.91
2017-05-09T03:27:54.386Z,21.91
2017-05-09T03:29:04.709Z,21.86
2017-05-09T03:30:14.637Z,21.98
2017-05-09T03:31:24.844Z,21.82
2017-05-09T03:32:34.741Z,21.88
2017-05-09T03:33:44.337Z,21.94
2017-05-09T03:34:54.236Z,21.91
2017-05-09T03:36:03.547Z,21.91
2017-05-09T03:37:13.454Z,21.98
2017-05-09T03:38:23.661Z,21.94
2017-05-09T03:39:33.879Z,21.84
2017-05-09T03:40:43.879Z,21.88
2017-05-09T03:41:54.091Z,21.82
2017-05-09T03:43:03.698Z,21.84
2017-05-09T03:44:13.614Z,21.91
2017-05-09T03:45:23.522Z,21.96
2017-05-09T03:46:33.743Z,21.86
2017-05-09T03:47:43.047Z,21.92
2017-05-09T03:48:52.956Z,21.91
2017-05-09T03:50:03.178Z,21.91
2017-05-09T03:51:12.463Z,21.9
2017-05-09T03:52:22.556Z,21.9
2017-05-09T03:53:32.785Z,21.88
2017-05-09T03:54:42.418Z,21.92
2017-05-09T03:55:52.324Z,21.88
2017-05-09T03:57:02.237Z,21.83
2017-05-09T03:58:12.717Z,21.92
2017-05-09T03:59:22.632Z,21.92
2017-05-09T04:00:32.853Z,21.92
2017-05-09T04:01:42.777Z,21.88
2017-05-09T04:02:52.682Z,21.91
2017-05-09T04:04:03.147Z,21.83
2017-05-09T04:05:13.368Z,21.86
2017-05-09T04:06:23.593Z,21.88
2017-05-09T04:07:33.809Z,21.86
2017-05-09T04:08:43.424Z,21.86
2017-05-09T04:09:53.949Z,21.83
2017-05-09T04:11:03.850Z,21.86
2017-05-09T04:12:14.086Z,21.86
2017-05-09T04:13:24.305Z,21.9
2017-05-09T04:14:34.224Z,21.86
2017-05-09T04:15:44.484Z,21.9
2017-05-09T04:16:53.775Z,21.86
2017-05-09T04:18:03.380Z,21.86
2017-05-09T04:19:13.297Z,21.9
2017-05-09T04:20:22.899Z,21.79
2017-05-09T04:21:33.405Z,21.88
2017-05-09T04:22:43.616Z,21.9
2017-05-09T04:24:12.743Z,21.83
2017-05-09T04:25:22.643Z,21.91
2017-05-09T04:26:32.398Z,21.9
2017-05-09T04:27:42.001Z,21.86
2017-05-09T04:28:52.231Z,21.92
2017-05-09T04:30:02.137Z,21.9
2017-05-09T04:31:12.052Z,21.91
2017-05-09T04:32:22.440Z,21.96
2017-05-09T04:33:32.344Z,21.9
2017-05-09T04:34:42.563Z,21.88
2017-05-09T04:35:52.781Z,21.86
2017-05-09T04:37:02.690Z,21.88
2017-05-09T04:38:12.449Z,21.98
2017-05-09T04:39:22.040Z,21.94
2017-05-09T04:40:31.664Z,21.98
2017-05-09T04:41:41.299Z,21.88
2017-05-09T04:42:51.513Z,21.99
2017-05-09T04:44:00.985Z,21.98
2017-05-09T04:45:11.203Z,21.99
2017-05-09T04:46:20.815Z,22.07
2017-05-09T04:47:30.741Z,22.09
2017-05-09T04:48:40.662Z,22.17
2017-05-09T04:49:50.816Z,22.17
2017-05-09T04:51:00.741Z,22.24
2017-05-09T04:52:10.659Z,22.25
2017-05-09T04:53:20.329Z,22.25
2017-05-09T04:54:30.469Z,22.4
2017-05-09T04:55:40.592Z,22.39
2017-05-09T04:56:50.814Z,22.45
2017-05-09T04:58:01.068Z,22.54
2017-05-09T04:59:11.034Z,22.58
2017-05-09T05:00:20.938Z,22.67
2017-05-09T05:01:31.314Z,22.68
2017-05-09T05:02:41.573Z,22.9
2017-05-09T05:03:51.490Z,23.15
2017-05-09T05:05:01.150Z,23.43
2017-05-09T05:06:10.766Z,23.69
2017-05-09T05:07:20.821Z,24.06
2017-05-09T05:08:31.042Z,24.32
2017-05-09T05:09:40.679Z,24.65
2017-05-09T05:10:50.592Z,24.88
2017-05-09T05:12:00.814Z,25.06
2017-05-09T05:13:10.587Z,25.43
2017-05-09T05:14:20.482Z,25.75
2017-05-09T05:15:29.473Z,25.95
2017-05-09T05:16:39.683Z,26.35
2017-05-09T05:17:49.285Z,26.69
2017-05-09T05:18:59.654Z,26.97
2017-05-09T05:20:09.949Z,27.24
2017-05-09T05:21:19.858Z,27.37
2017-05-09T05:22:30.067Z,27.62
2017-05-09T05:23:39.666Z,27.84
2017-05-09T05:24:50.029Z,28.04
2017-05-09T05:25:59.936Z,28.24
2017-05-09T05:27:09.855Z,28.43
2017-05-09T05:28:20.095Z,28.61
2017-05-09T05:29:30.321Z,28.71
2017-05-09T05:30:40.078Z,28.93
2017-05-09T05:31:50.316Z,29.02
2017-05-09T05:32:59.921Z,29.06
2017-05-09T05:34:09.834Z,29.31
2017-05-09T05:35:20.047Z,29.49
2017-05-09T05:36:30.422Z,29.64
2017-05-09T05:37:40.658Z,29.92
2017-05-09T05:38:50.286Z,30.11
2017-05-09T05:40:00.510Z,30.39
2017-05-09T05:41:10.110Z,30.65
2017-05-09T05:42:20.166Z,30.89
2017-05-09T05:43:30.422Z,31.1
2017-05-09T05:44:40.025Z,31.21
2017-05-09T05:45:49.679Z,31.36
2017-05-09T05:46:59.584Z,31.69
2017-05-09T05:48:09.658Z,31.78
2017-05-09T05:49:19.884Z,31.81
2017-05-09T05:50:29.804Z,31.95
2017-05-09T05:51:40.024Z,32.11
2017-05-09T05:52:50.238Z,32.29
2017-05-09T05:54:00.612Z,32.44
2017-05-09T05:55:09.925Z,32.52
2017-05-09T05:56:19.528Z,32.66
2017-05-09T05:57:29.134Z,32.75
2017-05-09T05:58:38.751Z,32.92
2017-05-09T05:59:49.132Z,32.96
2017-05-09T06:00:59.040Z,33.06
2017-05-09T06:02:08.647Z,33.07
2017-05-09T06:03:18.246Z,33.18
2017-05-09T06:04:28.460Z,33.29
2017-05-09T06:05:38.821Z,33.35
2017-05-09T06:06:49.041Z,33.37
2017-05-09T06:07:59.265Z,33.45
2017-05-09T06:09:08.873Z,33.51
2017-05-09T06:10:18.787Z,33.56
2017-05-09T06:11:28.545Z,33.65
2017-05-09T06:12:38.466Z,33.69
2017-05-09T06:13:48.387Z,33.91
2017-05-09T06:14:58.299Z,34.02
2017-05-09T06:16:08.227Z,34.1
2017-05-09T06:17:18.624Z,34.19
2017-05-09T06:18:28.562Z,34.35
2017-05-09T06:19:38.789Z,34.49
2017-05-09T06:20:49.011Z,34.61
2017-05-09T06:21:58.315Z,34.62
2017-05-09T06:23:08.070Z,34.52
2017-05-09T06:24:17.995Z,34.03
2017-05-09T06:25:28.223Z,33.54
2017-05-09T06:26:38.149Z,33
2017-05-09T06:27:48.063Z,32.43
2017-05-09T06:28:58.140Z,32.01
2017-05-09T06:30:08.367Z,31.53
2017-05-09T06:31:18.307Z,31.21
2017-05-09T06:32:28.539Z,30.83
2017-05-09T06:33:38.458Z,30.49
2017-05-09T06:34:48.231Z,30.15
2017-05-09T06:35:58.165Z,29.86
2017-05-09T06:37:08.092Z,29.61
2017-05-09T06:38:18.014Z,29.3
2017-05-09T06:39:28.243Z,29.12
2017-05-09T06:40:38.632Z,28.89
2017-05-09T06:41:48.256Z,28.66
2017-05-09T06:42:57.886Z,28.54
2017-05-09T06:44:07.823Z,28.31
2017-05-09T06:45:17.127Z,28.17
2017-05-09T06:46:27.508Z,28
2017-05-09T06:47:37.423Z,27.82
2017-05-09T06:48:47.047Z,27.62
2017-05-09T06:49:57.282Z,27.47
2017-05-09T06:51:06.893Z,27.32
2017-05-09T06:52:16.952Z,27.22
2017-05-09T06:53:26.590Z,27.09
2017-05-09T06:54:36.211Z,26.99
2017-05-09T06:55:46.454Z,26.84
2017-05-09T06:56:56.071Z,26.8
2017-05-09T06:58:06.088Z,26.65
2017-05-09T06:59:16.025Z,26.52
2017-05-09T07:00:26.259Z,26.5
2017-05-09T07:01:35.578Z,26.37
2017-05-09T07:02:45.197Z,26.32
2017-05-09T07:03:54.610Z,26.28
2017-05-09T07:05:04.837Z,26.2
2017-05-09T07:06:15.061Z,26.33
2017-05-09T07:07:25.291Z,26.69
2017-05-09T07:08:34.914Z,27.27
2017-05-09T07:09:44.984Z,27.88
2017-05-09T07:10:55.219Z,28.51
2017-05-09T07:12:05.437Z,29.26
2017-05-09T07:13:15.049Z,29.76
2017-05-09T07:14:25.278Z,30.29
2017-05-09T07:15:34.685Z,30.84
2017-05-09T07:16:44.294Z,31.26
2017-05-09T07:17:54.225Z,31.62
2017-05-09T07:19:03.843Z,31.95
2017-05-09T07:20:13.166Z,32.32
2017-05-09T07:21:23.501Z,32.63
2017-05-09T07:22:33.446Z,32.81
2017-05-09T07:23:43.071Z,33.16
2017-05-09T07:24:52.993Z,33.39
2017-05-09T07:26:03.223Z,33.5
2017-05-09T07:27:13.757Z,33.72
2017-05-09T07:28:23.990Z,33.93
2017-05-09T07:29:33.624Z,34.09
2017-05-09T07:30:43.552Z,34.22
2017-05-09T07:31:53.180Z,34.28
2017-05-09T07:33:03.572Z,34.47
2017-05-09T07:34:13.800Z,34.59
2017-05-09T07:35:23.725Z,34.56
2017-05-09T07:36:33.653Z,34.72
2017-05-09T07:37:43.888Z,34.69
2017-05-09T07:38:53.962Z,34.81
2017-05-09T07:40:04.192Z,34.82
2017-05-09T07:41:14.423Z,34.82
2017-05-09T07:42:24.657Z,34.82
2017-05-09T07:43:33.951Z,34.85
2017-05-09T07:44:43.737Z,34.82
2017-05-09T07:45:53.967Z,34.85
2017-05-09T07:47:03.904Z,34.85
2017-05-09T07:48:14.135Z,34.84
2017-05-09T07:49:23.753Z,34.82
2017-05-09T07:50:33.838Z,34.84
2017-05-09T07:51:44.058Z,34.84
2017-05-09T07:52:54.285Z,34.73
2017-05-09T07:54:03.614Z,34.77
2017-05-09T07:55:13.233Z,34.75
2017-05-09T07:56:23.421Z,34.58
2017-05-09T07:57:33.674Z,34.56
2017-05-09T07:58:43.305Z,34.54
2017-05-09T07:59:53.550Z,34.59
2017-05-09T08:01:03.168Z,34.62
2017-05-09T08:02:12.940Z,34.69
2017-05-09T08:03:22.867Z,34.58
2017-05-09T08:04:33.102Z,34.61
2017-05-09T08:05:43.028Z,34.59
2017-05-09T08:06:52.965Z,34.73
2017-05-09T08:08:03.349Z,34.75
2017-05-09T08:09:13.269Z,34.78
2017-05-09T08:10:22.579Z,34.65
2017-05-09T08:11:32.189Z,34.46
2017-05-09T08:12:41.823Z,34.52
2017-05-09T08:13:51.594Z,34.61
2017-05-09T08:15:01.538Z,34.58
2017-05-09T08:16:11.471Z,34.56
2017-05-09T08:17:20.796Z,34.58
2017-05-09T08:18:30.724Z,34.61
2017-05-09T08:19:41.101Z,34.53
2017-05-09T08:20:50.415Z,34.69
2017-05-09T08:22:00.635Z,34.65
2017-05-09T08:23:10.904Z,34.75
2017-05-09T08:24:20.838Z,34.84
2017-05-09T08:25:31.012Z,34.69
2017-05-09T08:26:40.930Z,34.77
2017-05-09T08:27:51.536Z,34.87
2017-05-09T08:29:01.478Z,34.87
2017-05-09T08:30:11.400Z,34.87
2017-05-09T08:31:21.483Z,35
2017-05-09T08:32:31.099Z,35.02
2017-05-09T08:33:41.712Z,34.94
2017-05-09T08:34:51.337Z,34.99
2017-05-09T08:36:00.961Z,35.04
2017-05-09T08:37:11.044Z,35.04
2017-05-09T08:38:21.303Z,35
2017-05-09T08:39:31.551Z,35.02
2017-05-09T08:40:41.551Z,34.99
2017-05-09T08:41:51.791Z,34.87
2017-05-09T08:43:01.865Z,34.72
2017-05-09T08:44:11.499Z,34.27
2017-05-09T08:45:21.444Z,33.73
2017-05-09T08:46:31.378Z,33.22
2017-05-09T08:47:41.311Z,32.87
2017-05-09T08:48:50.773Z,32.72
2017-05-09T08:50:00.710Z,32.81
2017-05-09T08:51:10.335Z,32.78
2017-05-09T08:52:19.946Z,32.78
2017-05-09T08:53:29.867Z,32.67
2017-05-09T08:54:39.955Z,32.47
2017-05-09T08:55:49.890Z,32.14
2017-05-09T08:56:59.816Z,31.85
2017-05-09T08:58:09.743Z,31.5
2017-05-09T08:59:19.683Z,31.28
2017-05-09T09:00:29.455Z,30.91
2017-05-09T09:01:39.379Z,30.76
2017-05-09T09:02:49.324Z,30.47
2017-05-09T09:03:59.567Z,30.31
2017-05-09T09:05:09.529Z,30.04
2017-05-09T09:06:19.611Z,29.78
2017-05-09T09:07:29.843Z,29.61
2017-05-09T09:08:40.088Z,29.46
2017-05-09T09:09:49.414Z,29.31
2017-05-09T09:10:58.723Z,29.14
2017-05-09T09:12:08.799Z,28.89
2017-05-09T09:13:18.457Z,28.68
2017-05-09T09:14:27.800Z,28.54
2017-05-09T09:15:38.029Z,28.41
2017-05-09T09:16:47.333Z,28.25
2017-05-09T09:17:57.724Z,28.15
2017-05-09T09:19:07.952Z,28.02
2017-05-09T09:20:17.890Z,27.94
2017-05-09T09:21:28.125Z,27.82
2017-05-09T09:22:38.349Z,27.67
2017-05-09T09:23:48.445Z,27.59
2017-05-09T09:24:58.381Z,27.59
2017-05-09T09:26:08.635Z,27.4
2017-05-09T09:27:17.942Z,27.32
2017-05-09T09:28:27.862Z,27.22
2017-05-09T09:29:37.027Z,27.25
2017-05-09T09:30:46.639Z,27.09
2017-05-09T09:31:56.889Z,27.03
2017-05-09T09:33:06.821Z,26.92
2017-05-09T09:34:16.427Z,26.85
2017-05-09T09:35:26.183Z,26.8
2017-05-09T09:36:36.414Z,26.75
2017-05-09T09:37:46.323Z,26.76
2017-05-09T09:38:56.553Z,26.66
2017-05-09T09:40:06.486Z,26.57
2017-05-09T09:41:16.871Z,26.48
2017-05-09T09:42:26.799Z,26.55
2017-05-09T09:43:36.724Z,26.44
2017-05-09T09:44:46.336Z,26.4
2017-05-09T09:45:56.580Z,26.37
2017-05-09T09:47:06.669Z,26.28
2017-05-09T09:48:15.982Z,26.29
2017-05-09T09:49:25.904Z,26.28
2017-05-09T09:50:35.207Z,26.1
2017-05-09T09:51:45.136Z,26.01
2017-05-09T09:52:55.536Z,25.92
2017-05-09T09:54:05.158Z,25.98
2017-05-09T09:55:14.814Z,25.94
2017-05-09T09:56:24.423Z,25.9
2017-05-09T09:57:34.645Z,25.91
2017-05-09T09:58:44.358Z,25.85
2017-05-09T09:59:54.580Z,25.88
2017-05-09T10:01:04.506Z,25.77
2017-05-09T10:02:14.436Z,25.82
2017-05-09T10:03:24.044Z,25.69
2017-05-09T10:04:33.769Z,25.61
2017-05-09T10:05:43.384Z,25.62
2017-05-09T10:06:53.324Z,25.57
2017-05-09T10:08:03.543Z,25.6
2017-05-09T10:09:13.779Z,25.51
2017-05-09T10:10:23.493Z,25.57
2017-05-09T10:11:33.421Z,25.47
2017-05-09T10:12:43.347Z,25.47
2017-05-09T10:13:53.269Z,25.47
2017-05-09T10:15:02.906Z,25.35
2017-05-09T10:16:13.240Z,25.45
2017-05-09T10:17:22.540Z,25.39
2017-05-09T10:18:32.160Z,25.38
2017-05-09T10:19:41.770Z,25.36
2017-05-09T10:20:51.403Z,25.38
2017-05-09T10:22:01.433Z,25.42
2017-05-09T10:23:11.373Z,25.3
2017-05-09T10:24:20.689Z,25.35
2017-05-09T10:25:30.936Z,25.38
2017-05-09T10:26:41.158Z,25.39
2017-05-09T10:27:51.532Z,25.33
2017-05-09T10:29:01.768Z,25.35
2017-05-09T10:30:11.710Z,25.28
2017-05-09T10:31:21.639Z,25.23
2017-05-09T10:32:30.959Z,25.24
2017-05-09T10:33:41.043Z,25.17
2017-05-09T10:34:51.263Z,25.13
2017-05-09T10:36:01.231Z,25.15
2017-05-09T10:37:11.446Z,25.13
2017-05-09T10:38:21.685Z,24.99
2017-05-09T10:39:31.461Z,25
2017-05-09T10:40:41.399Z,24.98
2017-05-09T10:41:51.668Z,24.98
2017-05-09T10:43:01.608Z,24.91
2017-05-09T10:44:11.232Z,24.91
2017-05-09T10:45:21.306Z,24.88
2017-05-09T10:46:31.558Z,24.93
2017-05-09T10:47:41.804Z,24.91
2017-05-09T10:48:51.758Z,24.91
2017-05-09T10:50:01.995Z,24.88
2017-05-09T10:51:12.365Z,24.84
2017-05-09T10:52:22.584Z,24.88
2017-05-09T10:53:32.810Z,24.95
2017-05-09T10:54:43.045Z,24.84
2017-05-09T10:55:52.661Z,24.81
2017-05-09T10:57:02.526Z,24.83
2017-05-09T10:58:12.479Z,24.77
2017-05-09T10:59:22.712Z,24.81
2017-05-09T11:00:32.320Z,24.81
2017-05-09T11:01:42.548Z,24.8
2017-05-09T11:02:52.618Z,24.76
2017-05-09T11:04:02.558Z,24.84
2017-05-09T11:05:11.856Z,24.78
2017-05-09T11:06:22.083Z,24.71
2017-05-09T11:07:31.698Z,24.77
2017-05-09T11:08:41.772Z,24.8
2017-05-09T11:09:51.381Z,24.78
2017-05-09T11:11:01.611Z,24.73
2017-05-09T11:12:11.530Z,24.65
2017-05-09T11:13:21.435Z,24.69
2017-05-09T11:14:31.522Z,24.73
2017-05-09T11:15:41.447Z,24.62
2017-05-09T11:16:51.353Z,24.62
2017-05-09T11:18:01.590Z,24.69
2017-05-09T11:19:11.196Z,24.57
2017-05-09T11:20:21.260Z,24.6
2017-05-09T11:21:31.493Z,24.62
2017-05-09T11:22:41.434Z,24.53
2017-05-09T11:23:51.355Z,24.57
2017-05-09T11:25:01.621Z,24.5
2017-05-09T11:26:11.812Z,24.49
2017-05-09T11:27:21.748Z,24.5
2017-05-09T11:28:31.682Z,24.47
2017-05-09T11:29:41.304Z,24.47
2017-05-09T11:30:51.227Z,24.49
2017-05-09T11:32:01.312Z,24.45
2017-05-09T11:33:10.935Z,24.5
2017-05-09T11:34:20.553Z,24.45
2017-05-09T11:35:30.782Z,24.46
2017-05-09T11:36:40.398Z,24.46
2017-05-09T11:37:50.784Z,24.43
2017-05-09T11:39:00.426Z,24.4
2017-05-09T11:40:10.049Z,24.39
2017-05-09T11:41:19.671Z,24.42
2017-05-09T11:42:29.602Z,24.49
2017-05-09T11:43:39.677Z,24.31
2017-05-09T11:44:49.582Z,24.34
2017-05-09T11:45:59.812Z,24.43
2017-05-09T11:47:09.445Z,24.42
2017-05-09T11:48:19.053Z,24.43
2017-05-09T11:49:29.128Z,24.35
2017-05-09T11:50:39.356Z,24.49
2017-05-09T11:51:49.589Z,24.31
2017-05-09T11:52:59.833Z,24.32
2017-05-09T11:54:09.754Z,24.34
2017-05-09T11:55:19.520Z,24.34
2017-05-09T11:56:29.132Z,24.35
2017-05-09T11:57:39.056Z,24.32
2017-05-09T11:58:48.980Z,24.22
2017-05-09T11:59:59.204Z,24.27
2017-05-09T12:01:09.280Z,24.25
2017-05-09T12:02:19.506Z,24.2
2017-05-09T12:03:29.740Z,24.12
2017-05-09T12:04:39.355Z,24.16
2017-05-09T12:05:49.290Z,24.12
2017-05-09T12:06:59.660Z,24.18
2017-05-09T12:08:09.264Z,24.16
2017-05-09T12:09:18.260Z,24.1
2017-05-09T12:10:28.164Z,24.03
2017-05-09T12:11:38.385Z,24.13
2017-05-09T12:12:48.408Z,24.09
2017-05-09T12:13:58.071Z,24.03
2017-05-09T12:15:08.007Z,24.12
2017-05-09T12:16:17.311Z,24.06
2017-05-09T12:17:27.227Z,24.06
2017-05-09T12:18:37.563Z,24.13
2017-05-09T12:19:47.785Z,24.12
2017-05-09T12:20:57.694Z,24.09
2017-05-09T12:22:07.607Z,23.97
2017-05-09T12:23:17.209Z,24.02
2017-05-09T12:24:27.525Z,24.03
2017-05-09T12:25:37.447Z,24.03
2017-05-09T12:26:47.359Z,24.03
2017-05-09T12:27:57.279Z,24.08
2017-05-09T12:29:07.518Z,23.94
2017-05-09T12:30:17.257Z,23.94
2017-05-09T12:31:26.882Z,24.02
2017-05-09T12:32:36.799Z,24.05
2017-05-09T12:33:47.034Z,24.08
2017-05-09T12:34:56.656Z,24.06
2017-05-09T12:36:06.977Z,24
2017-05-09T12:37:15.977Z,23.98
2017-05-09T12:38:25.586Z,24
2017-05-09T12:39:35.824Z,24.05
2017-05-09T12:40:45.742Z,24.09
2017-05-09T12:41:55.812Z,24.02
2017-05-09T12:43:05.429Z,24.1
2017-05-09T12:44:15.035Z,24.09
2017-05-09T12:45:25.252Z,24.06
2017-05-09T12:46:35.164Z,24.09
2017-05-09T12:47:45.226Z,24.09
2017-05-09T12:48:55.147Z,24.03
2017-05-09T12:50:05.076Z,24.03
2017-05-09T12:51:15.002Z,24.05
2017-05-09T12:52:24.930Z,24
2017-05-09T12:53:35.301Z,24.06
2017-05-09T12:54:45.531Z,24.09
2017-05-09T12:55:55.443Z,24.08
2017-05-09T12:57:05.344Z,24
2017-05-09T12:58:14.965Z,24.09
2017-05-09T12:59:25.334Z,24.09
2017-05-09T13:00:34.926Z,24.05
2017-05-09T13:01:44.539Z,24.08
2017-05-09T13:02:54.759Z,24.03
2017-05-09T13:04:04.377Z,24.06
2017-05-09T13:05:14.477Z,24.09
2017-05-09T13:06:24.104Z,24.08
2017-05-09T13:07:34.346Z,24.02
2017-05-09T13:08:43.969Z,24.06
2017-05-09T13:09:53.895Z,23.95
2017-05-09T13:11:03.969Z,24.03
2017-05-09T13:12:13.576Z,24.05
2017-05-09T13:13:23.505Z,24.05
2017-05-09T13:14:33.734Z,24.02
2017-05-09T13:15:43.638Z,23.98
2017-05-09T13:16:54.010Z,23.91
2017-05-09T13:18:04.287Z,24.06
2017-05-09T13:19:13.909Z,24.03
2017-05-09T13:20:24.135Z,24.08
2017-05-09T13:21:34.364Z,24.06
2017-05-09T13:22:44.740Z,24.06
2017-05-09T13:23:54.649Z,24
2017-05-09T13:25:04.589Z,24.1
2017-05-09T13:26:14.521Z,24.09
2017-05-09T13:27:24.758Z,24.08
2017-05-09T13:28:34.830Z,24
2017-05-09T13:29:44.446Z,24.08
2017-05-09T13:30:54.667Z,24.1
2017-05-09T13:32:04.272Z,24.08
2017-05-09T13:33:13.876Z,24.12
2017-05-09T13:34:23.959Z,24.1
2017-05-09T13:35:34.192Z,24.03
2017-05-09T13:36:43.813Z,24.09
2017-05-09T13:37:54.054Z,24.12
2017-05-09T13:39:04.291Z,24.09
2017-05-09T13:40:14.664Z,24.13
2017-05-09T13:41:24.286Z,24.09
2017-05-09T13:42:34.535Z,24.02
2017-05-09T13:43:44.214Z,24.13
2017-05-09T13:44:54.467Z,24.09
2017-05-09T13:46:04.540Z,24.12
2017-05-09T13:47:14.461Z,24.03
2017-05-09T13:48:24.107Z,24.1
2017-05-09T13:49:34.235Z,24.02
2017-05-09T13:50:44.156Z,24.09
2017-05-09T13:51:54.245Z,24.02
2017-05-09T13:53:04.166Z,24.03
2017-05-09T13:54:14.094Z,24.09
2017-05-09T13:55:24.037Z,24.03
2017-05-09T13:56:33.971Z,24.09
2017-05-09T13:57:44.050Z,24.06
2017-05-09T13:58:54.288Z,24.08
2017-05-09T14:00:04.537Z,24.08
2017-05-09T14:01:13.838Z,24.02
2017-05-09T14:02:23.768Z,24.05
2017-05-09T14:03:33.521Z,24.06
2017-05-09T14:04:42.839Z,24.06
2017-05-09T14:05:52.152Z,24.09
2017-05-09T14:07:02.067Z,24.1
2017-05-09T14:08:11.701Z,24.12
2017-05-09T14:09:21.170Z,24.06
2017-05-09T14:10:31.395Z,24.02
2017-05-09T14:11:41.003Z,24.12
2017-05-09T14:12:50.919Z,24
2017-05-09T14:14:00.546Z,24.1
2017-05-09T14:15:10.260Z,24.09
2017-05-09T14:16:20.171Z,24.13
2017-05-09T14:17:30.086Z,24.12
2017-05-09T14:18:40.318Z,24.06
2017-05-09T14:19:49.925Z,24.08
2017-05-09T14:20:59.351Z,24.12
2017-05-09T14:22:09.276Z,24.1
2017-05-09T14:23:18.899Z,24.1
2017-05-09T14:24:28.819Z,24.1
2017-05-09T14:25:39.065Z,24.03
2017-05-09T14:26:49.448Z,24.08
2017-05-09T14:27:59.769Z,24.05
2017-05-09T14:29:09.997Z,24.05
2017-05-09T14:30:19.935Z,24.08
2017-05-09T14:31:29.851Z,24.03
2017-05-09T14:32:39.879Z,23.97
2017-05-09T14:33:49.489Z,24.02
2017-05-09T14:34:59.402Z,23.94
2017-05-09T14:36:09.631Z,23.87
2017-05-09T14:37:19.571Z,23.9
2017-05-09T14:38:29.592Z,23.87
2017-05-09T14:39:39.510Z,23.91
2017-05-09T14:40:49.414Z,23.9
2017-05-09T14:41:59.634Z,23.9
2017-05-09T14:43:09.556Z,23.9
2017-05-09T14:44:19.853Z,23.93
2017-05-09T14:45:29.769Z,23.94
2017-05-09T14:46:39.995Z,23.98
2017-05-09T14:47:49.912Z,23.85
2017-05-09T14:48:59.517Z,23.88
2017-05-09T14:50:09.592Z,23.9
2017-05-09T14:51:19.856Z,23.93
2017-05-09T14:52:29.776Z,23.88
2017-05-09T14:53:39.686Z,23.88
2017-05-09T14:54:49.293Z,23.88
2017-05-09T14:55:59.351Z,23.85
2017-05-09T14:57:09.575Z,23.9
2017-05-09T14:58:19.486Z,23.93
2017-05-09T14:59:29.704Z,23.83
2017-05-09T15:00:39.619Z,23.95
2017-05-09T15:01:49.802Z,23.9
2017-05-09T15:02:59.420Z,23.9
2017-05-09T15:04:09.336Z,23.88
2017-05-09T15:05:19.274Z,23.9
2017-05-09T15:06:29.190Z,23.94